sensor_id;sensor_type;location;lat;lon;timestamp;P1;durP1;ratioP1;P2;durP2;ratioP2
8640;SDS011;4358;42.100;25.222;2023-07-24T00:02:25;7.13;;;5.50;;
8640;SDS011;4358;42.100;25.222;2023-07-24T00:04:51;5.90;;;5.10;;
8640;SDS011;4358;42.100;25.222;2023-07-24T00:07:19;8.17;;;5.10;;
8640;SDS011;4358;42.100;25.222;2023-07-24T00:09:46;6.60;;;5.23;;
8640;SDS011;4358;42.100;25.222;2023-07-24T00:12:14;6.87;;;5.43;;
8640;SDS011;4358;42.100;25.222;2023-07-24T00:14:41;8.50;;;5.67;;
8640;SDS011;4358;42.100;25.222;2023-07-24T00:17:08;7.77;;;5.73;;
8640;SDS011;4358;42.100;25.222;2023-07-24T00:19:34;6.50;;;5.10;;
8640;SDS011;4358;42.100;25.222;2023-07-24T00:22:01;6.70;;;5.57;;
8640;SDS011;4358;42.100;25.222;2023-07-24T00:24:30;8.33;;;5.63;;
8640;SDS011;4358;42.100;25.222;2023-07-24T00:26:58;6.13;;;5.53;;
8640;SDS011;4358;42.100;25.222;2023-07-24T00:29:25;9.77;;;5.73;;
8640;SDS011;4358;42.100;25.222;2023-07-24T00:31:52;6.83;;;5.80;;
8640;SDS011;4358;42.100;25.222;2023-07-24T00:34:19;6.30;;;5.70;;
8640;SDS011;4358;42.100;25.222;2023-07-24T00:36:46;6.97;;;6.27;;
8640;SDS011;4358;42.100;25.222;2023-07-24T00:39:13;14.37;;;6.50;;
8640;SDS011;4358;42.100;25.222;2023-07-24T00:41:42;6.60;;;5.67;;
8640;SDS011;4358;42.100;25.222;2023-07-24T00:44:09;7.60;;;5.57;;
8640;SDS011;4358;42.100;25.222;2023-07-24T00:46:36;6.23;;;5.47;;
8640;SDS011;4358;42.100;25.222;2023-07-24T00:49:04;7.30;;;6.47;;
8640;SDS011;4358;42.100;25.222;2023-07-24T00:51:31;6.73;;;5.70;;
8640;SDS011;4358;42.100;25.222;2023-07-24T00:54:00;6.70;;;6.10;;
8640;SDS011;4358;42.100;25.222;2023-07-24T00:56:28;7.17;;;6.43;;
8640;SDS011;4358;42.100;25.222;2023-07-24T00:58:58;6.57;;;5.90;;
8640;SDS011;4358;42.100;25.222;2023-07-24T01:01:26;6.47;;;5.60;;
8640;SDS011;4358;42.100;25.222;2023-07-24T01:03:53;6.60;;;5.97;;
8640;SDS011;4358;42.100;25.222;2023-07-24T01:06:23;8.53;;;6.00;;
8640;SDS011;4358;42.100;25.222;2023-07-24T01:08:50;6.83;;;6.13;;
8640;SDS011;4358;42.100;25.222;2023-07-24T01:11:18;8.93;;;6.83;;
8640;SDS011;4358;42.100;25.222;2023-07-24T01:13:48;8.13;;;6.90;;
8640;SDS011;4358;42.100;25.222;2023-07-24T01:16:25;9.10;;;6.53;;
8640;SDS011;4358;42.100;25.222;2023-07-24T01:18:57;8.17;;;6.37;;
8640;SDS011;4358;42.100;25.222;2023-07-24T01:21:29;9.67;;;6.90;;
8640;SDS011;4358;42.100;25.222;2023-07-24T01:24:10;7.63;;;6.77;;
8640;SDS011;4358;42.100;25.222;2023-07-24T01:26:48;7.83;;;7.00;;
8640;SDS011;4358;42.100;25.222;2023-07-24T01:29:15;8.50;;;6.60;;
8640;SDS011;4358;42.100;25.222;2023-07-24T01:31:42;8.07;;;6.10;;
8640;SDS011;4358;42.100;25.222;2023-07-24T01:34:09;8.23;;;6.93;;
8640;SDS011;4358;42.100;25.222;2023-07-24T01:36:35;6.93;;;6.20;;
8640;SDS011;4358;42.100;25.222;2023-07-24T01:39:02;8.17;;;7.37;;
8640;SDS011;4358;42.100;25.222;2023-07-24T01:41:29;8.07;;;6.53;;
8640;SDS011;4358;42.100;25.222;2023-07-24T01:43:59;8.20;;;6.63;;
8640;SDS011;4358;42.100;25.222;2023-07-24T01:46:26;10.27;;;6.53;;
8640;SDS011;4358;42.100;25.222;2023-07-24T01:48:53;7.60;;;6.33;;
8640;SDS011;4358;42.100;25.222;2023-07-24T01:51:20;7.70;;;6.90;;
8640;SDS011;4358;42.100;25.222;2023-07-24T01:53:47;9.37;;;5.97;;
8640;SDS011;4358;42.100;25.222;2023-07-24T01:56:13;7.63;;;6.70;;
8640;SDS011;4358;42.100;25.222;2023-07-24T01:58:40;7.17;;;6.47;;
8640;SDS011;4358;42.100;25.222;2023-07-24T02:01:08;8.87;;;6.70;;
8640;SDS011;4358;42.100;25.222;2023-07-24T02:03:35;10.00;;;7.00;;
8640;SDS011;4358;42.100;25.222;2023-07-24T02:06:04;10.43;;;7.00;;
8640;SDS011;4358;42.100;25.222;2023-07-24T02:08:31;10.10;;;7.00;;
8640;SDS011;4358;42.100;25.222;2023-07-24T02:10:58;11.13;;;6.77;;
8640;SDS011;4358;42.100;25.222;2023-07-24T02:13:24;10.10;;;6.80;;
8640;SDS011;4358;42.100;25.222;2023-07-24T02:15:51;7.80;;;7.00;;
8640;SDS011;4358;42.100;25.222;2023-07-24T02:18:20;10.93;;;7.33;;
8640;SDS011;4358;42.100;25.222;2023-07-24T02:20:49;7.83;;;7.03;;
8640;SDS011;4358;42.100;25.222;2023-07-24T02:23:16;8.77;;;7.53;;
8640;SDS011;4358;42.100;25.222;2023-07-24T02:25:43;11.87;;;8.20;;
8640;SDS011;4358;42.100;25.222;2023-07-24T02:28:10;11.47;;;7.83;;
8640;SDS011;4358;42.100;25.222;2023-07-24T02:30:37;13.83;;;9.53;;
8640;SDS011;4358;42.100;25.222;2023-07-24T02:33:05;10.70;;;9.10;;
8640;SDS011;4358;42.100;25.222;2023-07-24T02:35:37;12.20;;;9.70;;
8640;SDS011;4358;42.100;25.222;2023-07-24T02:38:05;14.30;;;9.43;;
8640;SDS011;4358;42.100;25.222;2023-07-24T02:40:33;17.43;;;10.50;;
8640;SDS011;4358;42.100;25.222;2023-07-24T02:43:00;16.33;;;11.93;;
8640;SDS011;4358;42.100;25.222;2023-07-24T02:45:27;13.97;;;11.30;;
8640;SDS011;4358;42.100;25.222;2023-07-24T02:47:54;16.03;;;11.03;;
8640;SDS011;4358;42.100;25.222;2023-07-24T02:50:21;14.73;;;11.37;;
8640;SDS011;4358;42.100;25.222;2023-07-24T02:52:49;16.27;;;11.23;;
8640;SDS011;4358;42.100;25.222;2023-07-24T02:55:16;16.13;;;12.43;;
8640;SDS011;4358;42.100;25.222;2023-07-24T02:57:42;14.53;;;12.10;;
8640;SDS011;4358;42.100;25.222;2023-07-24T03:00:10;15.03;;;11.57;;
8640;SDS011;4358;42.100;25.222;2023-07-24T03:02:37;13.83;;;11.93;;
8640;SDS011;4358;42.100;25.222;2023-07-24T03:05:04;18.07;;;12.87;;
8640;SDS011;4358;42.100;25.222;2023-07-24T03:07:31;18.67;;;13.43;;
8640;SDS011;4358;42.100;25.222;2023-07-24T03:10:00;18.17;;;14.47;;
8640;SDS011;4358;42.100;25.222;2023-07-24T03:12:27;22.03;;;16.00;;
8640;SDS011;4358;42.100;25.222;2023-07-24T03:14:53;19.93;;;14.40;;
8640;SDS011;4358;42.100;25.222;2023-07-24T03:17:21;22.03;;;14.47;;
8640;SDS011;4358;42.100;25.222;2023-07-24T03:19:49;21.07;;;13.27;;
8640;SDS011;4358;42.100;25.222;2023-07-24T03:22:15;20.27;;;13.43;;
8640;SDS011;4358;42.100;25.222;2023-07-24T03:24:42;19.27;;;14.73;;
8640;SDS011;4358;42.100;25.222;2023-07-24T03:27:10;17.73;;;14.20;;
8640;SDS011;4358;42.100;25.222;2023-07-24T03:29:37;22.50;;;15.93;;
8640;SDS011;4358;42.100;25.222;2023-07-24T03:32:06;21.33;;;14.50;;
8640;SDS011;4358;42.100;25.222;2023-07-24T03:34:33;19.13;;;14.10;;
8640;SDS011;4358;42.100;25.222;2023-07-24T03:37:00;18.23;;;13.20;;
8640;SDS011;4358;42.100;25.222;2023-07-24T03:39:27;17.47;;;13.07;;
8640;SDS011;4358;42.100;25.222;2023-07-24T03:41:53;18.17;;;13.37;;
8640;SDS011;4358;42.100;25.222;2023-07-24T03:44:22;20.27;;;15.33;;
8640;SDS011;4358;42.100;25.222;2023-07-24T03:46:48;19.80;;;15.17;;
8640;SDS011;4358;42.100;25.222;2023-07-24T03:49:15;20.47;;;16.33;;
8640;SDS011;4358;42.100;25.222;2023-07-24T03:51:42;23.50;;;17.77;;
8640;SDS011;4358;42.100;25.222;2023-07-24T03:54:09;20.47;;;16.40;;
8640;SDS011;4358;42.100;25.222;2023-07-24T03:56:35;18.27;;;15.07;;
8640;SDS011;4358;42.100;25.222;2023-07-24T03:59:02;27.07;;;16.47;;
8640;SDS011;4358;42.100;25.222;2023-07-24T04:01:30;23.87;;;17.17;;
8640;SDS011;4358;42.100;25.222;2023-07-24T04:03:58;21.90;;;18.20;;
8640;SDS011;4358;42.100;25.222;2023-07-24T04:06:25;24.40;;;19.07;;
8640;SDS011;4358;42.100;25.222;2023-07-24T04:08:51;24.67;;;19.70;;
8640;SDS011;4358;42.100;25.222;2023-07-24T04:11:18;23.63;;;18.93;;
8640;SDS011;4358;42.100;25.222;2023-07-24T04:13:45;20.60;;;17.50;;
8640;SDS011;4358;42.100;25.222;2023-07-24T04:16:12;22.13;;;18.40;;
8640;SDS011;4358;42.100;25.222;2023-07-24T04:18:40;21.37;;;18.87;;
8640;SDS011;4358;42.100;25.222;2023-07-24T04:21:07;24.43;;;18.67;;
8640;SDS011;4358;42.100;25.222;2023-07-24T04:23:33;22.40;;;19.13;;
8640;SDS011;4358;42.100;25.222;2023-07-24T04:26:00;22.20;;;18.77;;
8640;SDS011;4358;42.100;25.222;2023-07-24T04:28:27;21.40;;;18.10;;
8640;SDS011;4358;42.100;25.222;2023-07-24T04:30:54;24.90;;;19.77;;
8640;SDS011;4358;42.100;25.222;2023-07-24T04:33:21;20.33;;;18.17;;
8640;SDS011;4358;42.100;25.222;2023-07-24T04:35:53;22.87;;;18.47;;
8640;SDS011;4358;42.100;25.222;2023-07-24T04:38:20;24.63;;;19.20;;
8640;SDS011;4358;42.100;25.222;2023-07-24T04:40:47;19.27;;;17.23;;
8640;SDS011;4358;42.100;25.222;2023-07-24T04:43:13;19.63;;;16.77;;
8640;SDS011;4358;42.100;25.222;2023-07-24T04:45:40;21.70;;;19.40;;
8640;SDS011;4358;42.100;25.222;2023-07-24T04:48:07;22.93;;;19.43;;
8640;SDS011;4358;42.100;25.222;2023-07-24T04:50:34;19.50;;;17.40;;
8640;SDS011;4358;42.100;25.222;2023-07-24T04:53:02;22.33;;;19.13;;
8640;SDS011;4358;42.100;25.222;2023-07-24T04:55:29;23.43;;;20.97;;
8640;SDS011;4358;42.100;25.222;2023-07-24T04:57:55;22.03;;;19.03;;
8640;SDS011;4358;42.100;25.222;2023-07-24T05:00:22;22.43;;;18.87;;
8640;SDS011;4358;42.100;25.222;2023-07-24T05:02:49;22.37;;;18.63;;
8640;SDS011;4358;42.100;25.222;2023-07-24T05:05:16;23.67;;;19.57;;
8640;SDS011;4358;42.100;25.222;2023-07-24T05:07:43;20.10;;;17.57;;
8640;SDS011;4358;42.100;25.222;2023-07-24T05:10:11;20.33;;;17.90;;
8640;SDS011;4358;42.100;25.222;2023-07-24T05:12:40;22.50;;;19.00;;
8640;SDS011;4358;42.100;25.222;2023-07-24T05:15:07;20.33;;;18.23;;
8640;SDS011;4358;42.100;25.222;2023-07-24T05:17:35;21.63;;;18.90;;
8640;SDS011;4358;42.100;25.222;2023-07-24T05:20:02;23.77;;;17.57;;
8640;SDS011;4358;42.100;25.222;2023-07-24T05:22:28;21.53;;;17.67;;
8640;SDS011;4358;42.100;25.222;2023-07-24T05:24:55;18.43;;;16.53;;
8640;SDS011;4358;42.100;25.222;2023-07-24T05:27:23;21.60;;;17.93;;
8640;SDS011;4358;42.100;25.222;2023-07-24T05:29:50;22.47;;;17.97;;
8640;SDS011;4358;42.100;25.222;2023-07-24T05:32:17;23.37;;;18.27;;
8640;SDS011;4358;42.100;25.222;2023-07-24T05:34:44;19.40;;;17.40;;
8640;SDS011;4358;42.100;25.222;2023-07-24T05:37:11;18.57;;;16.43;;
8640;SDS011;4358;42.100;25.222;2023-07-24T05:39:37;21.30;;;17.23;;
8640;SDS011;4358;42.100;25.222;2023-07-24T05:42:04;23.07;;;18.33;;
8640;SDS011;4358;42.100;25.222;2023-07-24T05:44:32;19.77;;;17.70;;
8640;SDS011;4358;42.100;25.222;2023-07-24T05:47:00;19.07;;;17.07;;
8640;SDS011;4358;42.100;25.222;2023-07-24T05:49:27;24.13;;;18.80;;
8640;SDS011;4358;42.100;25.222;2023-07-24T05:51:54;19.30;;;17.10;;
8640;SDS011;4358;42.100;25.222;2023-07-24T05:54:22;19.67;;;17.57;;
8640;SDS011;4358;42.100;25.222;2023-07-24T05:56:48;22.23;;;19.83;;
8640;SDS011;4358;42.100;25.222;2023-07-24T05:59:15;20.10;;;17.00;;
8640;SDS011;4358;42.100;25.222;2023-07-24T06:01:43;20.77;;;18.60;;
8640;SDS011;4358;42.100;25.222;2023-07-24T06:04:10;20.40;;;18.20;;
8640;SDS011;4358;42.100;25.222;2023-07-24T06:06:37;22.43;;;19.67;;
8640;SDS011;4358;42.100;25.222;2023-07-24T06:09:04;20.13;;;18.03;;
8640;SDS011;4358;42.100;25.222;2023-07-24T06:11:31;20.07;;;17.97;;
8640;SDS011;4358;42.100;25.222;2023-07-24T06:13:57;20.50;;;18.27;;
8640;SDS011;4358;42.100;25.222;2023-07-24T06:16:24;21.40;;;18.47;;
8640;SDS011;4358;42.100;25.222;2023-07-24T06:18:54;20.40;;;18.20;;
8640;SDS011;4358;42.100;25.222;2023-07-24T06:21:21;19.93;;;17.50;;
8640;SDS011;4358;42.100;25.222;2023-07-24T06:23:48;23.83;;;18.47;;
8640;SDS011;4358;42.100;25.222;2023-07-24T06:26:14;25.37;;;17.87;;
8640;SDS011;4358;42.100;25.222;2023-07-24T06:28:42;22.77;;;19.03;;
8640;SDS011;4358;42.100;25.222;2023-07-24T06:31:09;21.40;;;17.80;;
8640;SDS011;4358;42.100;25.222;2023-07-24T06:33:36;18.73;;;16.83;;
8640;SDS011;4358;42.100;25.222;2023-07-24T06:36:04;21.03;;;17.63;;
8640;SDS011;4358;42.100;25.222;2023-07-24T06:38:35;18.57;;;16.57;;
8640;SDS011;4358;42.100;25.222;2023-07-24T06:41:02;18.03;;;16.23;;
8640;SDS011;4358;42.100;25.222;2023-07-24T06:43:29;19.67;;;17.57;;
8640;SDS011;4358;42.100;25.222;2023-07-24T06:45:55;17.97;;;16.27;;
8640;SDS011;4358;42.100;25.222;2023-07-24T06:48:22;16.77;;;15.10;;
8640;SDS011;4358;42.100;25.222;2023-07-24T06:50:49;17.87;;;15.90;;
8640;SDS011;4358;42.100;25.222;2023-07-24T06:53:17;17.70;;;15.83;;
8640;SDS011;4358;42.100;25.222;2023-07-24T06:55:44;17.93;;;14.20;;
8640;SDS011;4358;42.100;25.222;2023-07-24T06:58:11;17.80;;;15.97;;
8640;SDS011;4358;42.100;25.222;2023-07-24T07:00:38;17.77;;;15.87;;
8640;SDS011;4358;42.100;25.222;2023-07-24T07:03:04;15.87;;;14.30;;
8640;SDS011;4358;42.100;25.222;2023-07-24T07:05:32;15.80;;;14.20;;
8640;SDS011;4358;42.100;25.222;2023-07-24T07:07:59;23.17;;;13.70;;
8640;SDS011;4358;42.100;25.222;2023-07-24T07:10:27;16.53;;;14.47;;
8640;SDS011;4358;42.100;25.222;2023-07-24T07:12:53;15.40;;;13.93;;
8640;SDS011;4358;42.100;25.222;2023-07-24T07:15:21;15.30;;;13.90;;
8640;SDS011;4358;42.100;25.222;2023-07-24T07:17:47;15.20;;;13.60;;
8640;SDS011;4358;42.100;25.222;2023-07-24T07:20:14;14.23;;;12.83;;
8640;SDS011;4358;42.100;25.222;2023-07-24T07:22:41;13.80;;;12.40;;
8640;SDS011;4358;42.100;25.222;2023-07-24T07:25:08;14.00;;;12.50;;
8640;SDS011;4358;42.100;25.222;2023-07-24T07:27:36;14.70;;;13.03;;
8640;SDS011;4358;42.100;25.222;2023-07-24T07:30:03;14.00;;;11.87;;
8640;SDS011;4358;42.100;25.222;2023-07-24T07:32:31;12.97;;;11.57;;
8640;SDS011;4358;42.100;25.222;2023-07-24T07:34:58;12.77;;;11.57;;
8640;SDS011;4358;42.100;25.222;2023-07-24T07:37:25;12.33;;;11.10;;
8640;SDS011;4358;42.100;25.222;2023-07-24T07:39:52;12.37;;;10.17;;
8640;SDS011;4358;42.100;25.222;2023-07-24T07:42:18;12.50;;;9.90;;
8640;SDS011;4358;42.100;25.222;2023-07-24T07:44:46;11.67;;;10.47;;
8640;SDS011;4358;42.100;25.222;2023-07-24T07:47:13;11.97;;;10.57;;
8640;SDS011;4358;42.100;25.222;2023-07-24T07:49:40;12.50;;;11.13;;
8640;SDS011;4358;42.100;25.222;2023-07-24T07:52:07;11.17;;;10.10;;
8640;SDS011;4358;42.100;25.222;2023-07-24T07:54:34;13.90;;;10.80;;
8640;SDS011;4358;42.100;25.222;2023-07-24T07:57:00;12.27;;;10.27;;
8640;SDS011;4358;42.100;25.222;2023-07-24T07:59:27;11.80;;;10.70;;
8640;SDS011;4358;42.100;25.222;2023-07-24T08:01:55;11.20;;;10.02;;
8640;SDS011;4358;42.100;25.222;2023-07-24T08:04:23;10.60;;;9.50;;
8640;SDS011;4358;42.100;25.222;2023-07-24T08:06:50;10.15;;;8.88;;
8640;SDS011;4358;42.100;25.222;2023-07-24T08:09:17;10.30;;;8.93;;
8640;SDS011;4358;42.100;25.222;2023-07-24T08:11:43;18.67;;;11.70;;
8640;SDS011;4358;42.100;25.222;2023-07-24T08:14:10;10.35;;;9.45;;
8640;SDS011;4358;42.100;25.222;2023-07-24T08:16:37;10.02;;;9.13;;
8640;SDS011;4358;42.100;25.222;2023-07-24T08:19:05;10.38;;;9.38;;
8640;SDS011;4358;42.100;25.222;2023-07-24T08:21:32;10.70;;;9.70;;
8640;SDS011;4358;42.100;25.222;2023-07-24T08:23:59;10.40;;;9.50;;
8640;SDS011;4358;42.100;25.222;2023-07-24T08:26:27;10.02;;;8.95;;
8640;SDS011;4358;42.100;25.222;2023-07-24T08:28:54;11.55;;;10.45;;
8640;SDS011;4358;42.100;25.222;2023-07-24T08:31:20;10.50;;;9.40;;
8640;SDS011;4358;42.100;25.222;2023-07-24T08:33:47;12.13;;;8.98;;
8640;SDS011;4358;42.100;25.222;2023-07-24T08:36:15;10.25;;;9.18;;
8640;SDS011;4358;42.100;25.222;2023-07-24T08:38:42;10.70;;;9.65;;
8640;SDS011;4358;42.100;25.222;2023-07-24T08:41:10;11.23;;;10.15;;
8640;SDS011;4358;42.100;25.222;2023-07-24T08:43:39;12.82;;;10.38;;
8640;SDS011;4358;42.100;25.222;2023-07-24T08:46:07;9.95;;;8.95;;
8640;SDS011;4358;42.100;25.222;2023-07-24T08:48:35;9.23;;;8.32;;
8640;SDS011;4358;42.100;25.222;2023-07-24T08:51:05;10.48;;;9.40;;
8640;SDS011;4358;42.100;25.222;2023-07-24T08:53:35;11.35;;;9.07;;
8640;SDS011;4358;42.100;25.222;2023-07-24T08:56:03;10.05;;;8.85;;
8640;SDS011;4358;42.100;25.222;2023-07-24T08:58:31;9.57;;;8.68;;
8640;SDS011;4358;42.100;25.222;2023-07-24T09:00:58;11.82;;;10.63;;
8640;SDS011;4358;42.100;25.222;2023-07-24T09:03:26;10.82;;;9.82;;
8640;SDS011;4358;42.100;25.222;2023-07-24T09:05:53;10.15;;;9.15;;
8640;SDS011;4358;42.100;25.222;2023-07-24T09:08:28;10.35;;;9.10;;
8640;SDS011;4358;42.100;25.222;2023-07-24T09:10:56;9.88;;;8.98;;
8640;SDS011;4358;42.100;25.222;2023-07-24T09:13:23;11.00;;;9.88;;
8640;SDS011;4358;42.100;25.222;2023-07-24T09:15:50;10.60;;;9.52;;
8640;SDS011;4358;42.100;25.222;2023-07-24T09:18:17;11.02;;;9.98;;
8640;SDS011;4358;42.100;25.222;2023-07-24T09:20:44;10.25;;;9.13;;
8640;SDS011;4358;42.100;25.222;2023-07-24T09:23:12;9.43;;;8.55;;
8640;SDS011;4358;42.100;25.222;2023-07-24T09:25:41;9.85;;;8.63;;
8640;SDS011;4358;42.100;25.222;2023-07-24T09:28:11;10.13;;;8.57;;
8640;SDS011;4358;42.100;25.222;2023-07-24T09:30:38;9.68;;;8.77;;
8640;SDS011;4358;42.100;25.222;2023-07-24T09:33:06;8.35;;;7.60;;
8640;SDS011;4358;42.100;25.222;2023-07-24T09:35:33;8.40;;;7.68;;
8640;SDS011;4358;42.100;25.222;2023-07-24T09:38:01;9.90;;;8.93;;
8640;SDS011;4358;42.100;25.222;2023-07-24T09:40:36;9.02;;;8.13;;
8640;SDS011;4358;42.100;25.222;2023-07-24T09:43:15;9.15;;;8.25;;
8640;SDS011;4358;42.100;25.222;2023-07-24T09:45:43;9.35;;;8.45;;
8640;SDS011;4358;42.100;25.222;2023-07-24T09:48:11;9.70;;;8.52;;
8640;SDS011;4358;42.100;25.222;2023-07-24T09:50:40;9.63;;;8.63;;
8640;SDS011;4358;42.100;25.222;2023-07-24T09:53:08;10.13;;;9.23;;
8640;SDS011;4358;42.100;25.222;2023-07-24T09:55:41;10.88;;;8.82;;
8640;SDS011;4358;42.100;25.222;2023-07-24T09:58:14;9.07;;;8.18;;
8640;SDS011;4358;42.100;25.222;2023-07-24T10:00:42;8.98;;;8.18;;
8640;SDS011;4358;42.100;25.222;2023-07-24T10:03:10;10.10;;;8.05;;
8640;SDS011;4358;42.100;25.222;2023-07-24T10:05:37;10.23;;;9.25;;
8640;SDS011;4358;42.100;25.222;2023-07-24T10:08:05;12.70;;;8.93;;
8640;SDS011;4358;42.100;25.222;2023-07-24T10:10:32;12.40;;;8.65;;
8640;SDS011;4358;42.100;25.222;2023-07-24T10:12:59;9.23;;;8.15;;
8640;SDS011;4358;42.100;25.222;2023-07-24T10:15:28;9.10;;;8.27;;
8640;SDS011;4358;42.100;25.222;2023-07-24T10:18:01;8.73;;;7.82;;
8640;SDS011;4358;42.100;25.222;2023-07-24T10:20:32;9.52;;;8.52;;
8640;SDS011;4358;42.100;25.222;2023-07-24T10:23:01;8.18;;;7.38;;
8640;SDS011;4358;42.100;25.222;2023-07-24T10:25:29;7.93;;;7.22;;
8640;SDS011;4358;42.100;25.222;2023-07-24T10:28:00;8.07;;;7.28;;
8640;SDS011;4358;42.100;25.222;2023-07-24T10:30:33;8.85;;;7.95;;
8640;SDS011;4358;42.100;25.222;2023-07-24T10:33:04;7.80;;;7.03;;
8640;SDS011;4358;42.100;25.222;2023-07-24T10:35:36;8.40;;;7.50;;
8640;SDS011;4358;42.100;25.222;2023-07-24T10:38:07;7.82;;;7.03;;
8640;SDS011;4358;42.100;25.222;2023-07-24T10:40:34;8.32;;;7.53;;
8640;SDS011;4358;42.100;25.222;2023-07-24T10:43:04;9.00;;;8.10;;
8640;SDS011;4358;42.100;25.222;2023-07-24T10:45:40;8.68;;;7.43;;
8640;SDS011;4358;42.100;25.222;2023-07-24T10:48:13;7.80;;;7.10;;
8640;SDS011;4358;42.100;25.222;2023-07-24T10:50:41;8.75;;;7.85;;
8640;SDS011;4358;42.100;25.222;2023-07-24T10:53:09;8.80;;;7.97;;
8640;SDS011;4358;42.100;25.222;2023-07-24T10:55:36;7.93;;;7.22;;
8640;SDS011;4358;42.100;25.222;2023-07-24T10:58:03;10.05;;;7.63;;
8640;SDS011;4358;42.100;25.222;2023-07-24T11:00:30;8.18;;;7.43;;
8640;SDS011;4358;42.100;25.222;2023-07-24T11:02:58;8.93;;;7.78;;
8640;SDS011;4358;42.100;25.222;2023-07-24T11:05:25;8.63;;;7.72;;
8640;SDS011;4358;42.100;25.222;2023-07-24T11:07:52;7.70;;;6.90;;
8640;SDS011;4358;42.100;25.222;2023-07-24T11:10:19;10.23;;;7.70;;
8640;SDS011;4358;42.100;25.222;2023-07-24T11:12:47;8.63;;;7.15;;
8640;SDS011;4358;42.100;25.222;2023-07-24T11:15:15;8.07;;;7.20;;
8640;SDS011;4358;42.100;25.222;2023-07-24T11:17:42;8.60;;;7.78;;
8640;SDS011;4358;42.100;25.222;2023-07-24T11:20:11;7.80;;;7.10;;
8640;SDS011;4358;42.100;25.222;2023-07-24T11:22:43;8.57;;;7.78;;
8640;SDS011;4358;42.100;25.222;2023-07-24T11:25:10;7.38;;;6.72;;
8640;SDS011;4358;42.100;25.222;2023-07-24T11:27:38;8.25;;;7.45;;
8640;SDS011;4358;42.100;25.222;2023-07-24T11:30:07;8.35;;;7.55;;
8640;SDS011;4358;42.100;25.222;2023-07-24T11:32:35;7.72;;;7.03;;
8640;SDS011;4358;42.100;25.222;2023-07-24T11:35:03;8.55;;;7.13;;
8640;SDS011;4358;42.100;25.222;2023-07-24T11:37:32;8.20;;;7.38;;
8640;SDS011;4358;42.100;25.222;2023-07-24T11:40:00;8.18;;;7.43;;
8640;SDS011;4358;42.100;25.222;2023-07-24T11:42:35;8.27;;;7.57;;
8640;SDS011;4358;42.100;25.222;2023-07-24T11:45:08;8.68;;;7.88;;
8640;SDS011;4358;42.100;25.222;2023-07-24T11:47:43;11.50;;;7.43;;
8640;SDS011;4358;42.100;25.222;2023-07-24T11:50:40;9.02;;;8.00;;
8640;SDS011;4358;42.100;25.222;2023-07-24T11:53:19;10.35;;;8.05;;
8640;SDS011;4358;42.100;25.222;2023-07-24T11:56:13;8.60;;;7.50;;
8640;SDS011;4358;42.100;25.222;2023-07-24T11:58:41;9.45;;;8.45;;
8640;SDS011;4358;42.100;25.222;2023-07-24T12:01:14;8.82;;;7.82;;
8640;SDS011;4358;42.100;25.222;2023-07-24T12:03:43;10.30;;;7.45;;
8640;SDS011;4358;42.100;25.222;2023-07-24T12:06:24;9.23;;;8.32;;
8640;SDS011;4358;42.100;25.222;2023-07-24T12:09:13;9.35;;;8.45;;
8640;SDS011;4358;42.100;25.222;2023-07-24T12:11:59;8.55;;;7.75;;
8640;SDS011;4358;42.100;25.222;2023-07-24T12:14:46;8.27;;;7.30;;
8640;SDS011;4358;42.100;25.222;2023-07-24T12:17:33;9.50;;;8.20;;
8640;SDS011;4358;42.100;25.222;2023-07-24T12:20:20;8.18;;;7.40;;
8640;SDS011;4358;42.100;25.222;2023-07-24T12:23:07;9.00;;;8.10;;
8640;SDS011;4358;42.100;25.222;2023-07-24T12:25:55;7.97;;;7.18;;
8640;SDS011;4358;42.100;25.222;2023-07-24T12:28:22;8.77;;;7.78;;
8640;SDS011;4358;42.100;25.222;2023-07-24T12:31:09;9.63;;;8.25;;
8640;SDS011;4358;42.100;25.222;2023-07-24T12:33:55;9.40;;;8.10;;
8640;SDS011;4358;42.100;25.222;2023-07-24T12:36:42;10.05;;;7.65;;
8640;SDS011;4358;42.100;25.222;2023-07-24T12:39:28;9.93;;;8.00;;
8640;SDS011;4358;42.100;25.222;2023-07-24T12:42:16;11.48;;;8.10;;
8640;SDS011;4358;42.100;25.222;2023-07-24T12:45:03;9.27;;;8.32;;
8640;SDS011;4358;42.100;25.222;2023-07-24T12:47:33;9.88;;;8.18;;
8640;SDS011;4358;42.100;25.222;2023-07-24T12:50:20;8.82;;;7.97;;
8640;SDS011;4358;42.100;25.222;2023-07-24T12:53:07;9.27;;;8.27;;
8640;SDS011;4358;42.100;25.222;2023-07-24T12:55:54;11.57;;;8.55;;
8640;SDS011;4358;42.100;25.222;2023-07-24T12:58:42;9.35;;;8.35;;
8640;SDS011;4358;42.100;25.222;2023-07-24T13:01:29;8.93;;;8.00;;
8640;SDS011;4358;42.100;25.222;2023-07-24T13:04:16;9.20;;;8.30;;
8640;SDS011;4358;42.100;25.222;2023-07-24T13:07:02;9.48;;;8.32;;
8640;SDS011;4358;42.100;25.222;2023-07-24T13:09:49;10.02;;;8.35;;
8640;SDS011;4358;42.100;25.222;2023-07-24T13:12:36;8.95;;;8.05;;
8640;SDS011;4358;42.100;25.222;2023-07-24T13:15:24;11.23;;;8.57;;
8640;SDS011;4358;42.100;25.222;2023-07-24T13:18:11;10.32;;;8.15;;
8640;SDS011;4358;42.100;25.222;2023-07-24T13:20:59;9.27;;;8.27;;
8640;SDS011;4358;42.100;25.222;2023-07-24T13:23:45;9.30;;;8.25;;
8640;SDS011;4358;42.100;25.222;2023-07-24T13:26:33;9.65;;;8.55;;
8640;SDS011;4358;42.100;25.222;2023-07-24T13:29:19;9.85;;;8.65;;
8640;SDS011;4358;42.100;25.222;2023-07-24T13:31:50;10.93;;;8.68;;
8640;SDS011;4358;42.100;25.222;2023-07-24T13:34:37;10.77;;;9.20;;
8640;SDS011;4358;42.100;25.222;2023-07-24T13:37:24;10.57;;;8.43;;
8640;SDS011;4358;42.100;25.222;2023-07-24T13:40:11;11.00;;;9.05;;
8640;SDS011;4358;42.100;25.222;2023-07-24T13:42:38;10.68;;;9.50;;
8640;SDS011;4358;42.100;25.222;2023-07-24T13:45:25;10.30;;;9.20;;
8640;SDS011;4358;42.100;25.222;2023-07-24T13:47:54;12.55;;;11.30;;
8640;SDS011;4358;42.100;25.222;2023-07-24T13:50:38;9.80;;;8.77;;
8640;SDS011;4358;42.100;25.222;2023-07-24T13:53:24;11.48;;;8.82;;
8640;SDS011;4358;42.100;25.222;2023-07-24T13:56:11;10.88;;;8.68;;
8640;SDS011;4358;42.100;25.222;2023-07-24T13:58:59;13.55;;;9.25;;
8640;SDS011;4358;42.100;25.222;2023-07-24T14:01:30;12.27;;;8.88;;
8640;SDS011;4358;42.100;25.222;2023-07-24T14:04:18;10.30;;;9.15;;
8640;SDS011;4358;42.100;25.222;2023-07-24T14:06:46;12.85;;;10.23;;
8640;SDS011;4358;42.100;25.222;2023-07-24T14:09:32;11.95;;;10.10;;
8640;SDS011;4358;42.100;25.222;2023-07-24T14:12:01;10.98;;;9.93;;
8640;SDS011;4358;42.100;25.222;2023-07-24T14:14:48;12.20;;;9.85;;
8640;SDS011;4358;42.100;25.222;2023-07-24T14:17:34;13.25;;;10.00;;
8640;SDS011;4358;42.100;25.222;2023-07-24T14:20:11;15.95;;;10.10;;
8640;SDS011;4358;42.100;25.222;2023-07-24T14:22:50;13.27;;;10.18;;
8640;SDS011;4358;42.100;25.222;2023-07-24T14:25:37;12.13;;;10.00;;
8640;SDS011;4358;42.100;25.222;2023-07-24T14:28:10;11.10;;;9.73;;
8640;SDS011;4358;42.100;25.222;2023-07-24T14:30:57;12.50;;;9.10;;
8640;SDS011;4358;42.100;25.222;2023-07-24T14:33:25;13.65;;;10.07;;
8640;SDS011;4358;42.100;25.222;2023-07-24T14:36:03;11.70;;;9.48;;
8640;SDS011;4358;42.100;25.222;2023-07-24T14:38:31;10.55;;;9.18;;
8640;SDS011;4358;42.100;25.222;2023-07-24T14:41:18;10.02;;;9.02;;
8640;SDS011;4358;42.100;25.222;2023-07-24T14:43:53;10.23;;;9.10;;
8640;SDS011;4358;42.100;25.222;2023-07-24T14:46:21;11.02;;;8.88;;
8640;SDS011;4358;42.100;25.222;2023-07-24T14:49:07;11.02;;;8.80;;
8640;SDS011;4358;42.100;25.222;2023-07-24T14:51:55;10.65;;;9.18;;
8640;SDS011;4358;42.100;25.222;2023-07-24T14:54:42;12.38;;;9.40;;
8640;SDS011;4358;42.100;25.222;2023-07-24T14:57:24;11.43;;;9.45;;
8640;SDS011;4358;42.100;25.222;2023-07-24T15:00:12;11.45;;;9.18;;
8640;SDS011;4358;42.100;25.222;2023-07-24T15:02:59;11.30;;;9.35;;
8640;SDS011;4358;42.100;25.222;2023-07-24T15:05:46;12.35;;;9.35;;
8640;SDS011;4358;42.100;25.222;2023-07-24T15:08:34;11.30;;;9.35;;
8640;SDS011;4358;42.100;25.222;2023-07-24T15:11:02;11.18;;;9.23;;